Time;durP1;ratioP1;P1;durP2;ratioP2;P2;SDS_P1;SDS_P2;PMS_P1;PMS_P2;Temp;Humidity;BMP_temperature;BMP_pressure;BME280_temperature;BME280_humidity;BME280_pressure;Samples;Min_cycle;Max_cycle;Signal;HPM_P1;HPM_P2
2021/12/12 00:00:11;;;;;;;15.45;4.93;;;;;;;;;;5005698;28;20042;-72
2021/12/12 00:05:20;;;;;;;12.32;5.25;;;;;;;;;;5008104;28;20610;-71
2021/12/12 00:07:46;;;;;;;13.13;4.75;;;;;;;;;;5008905;28;20038;-72
2021/12/12 00:10:16;;;;;;;12.32;4.72;;;;;;;;;;5007625;28;20104;-71
2021/12/12 00:12:47;;;;;;;10.93;3.83;;;;;;;;;;5003303;28;20121;-72
2021/12/12 00:15:15;;;;;;;16.45;5.38;;;;;;;;;;5001572;28;20144;-72
2021/12/12 00:17:41;;;;;;;24.23;5.32;;;;;;;;;;4994996;28;20044;-71
2021/12/12 00:20:09;;;;;;;18.92;5.72;;;;;;;;;;5005650;28;20722;-72
2021/12/12 00:22:34;;;;;;;17.98;4.97;;;;;;;;;;5007819;28;20034;-72
2021/12/12 00:25:00;;;;;;;9.80;4.70;;;;;;;;;;5007200;28;20446;-72
2021/12/12 00:27:25;;;;;;;17.23;6.47;;;;;;;;;;5006592;28;20077;-72
2021/12/12 00:29:51;;;;;;;18.70;6.40;;;;;;;;;;5008059;28;20129;-72
2021/12/12 00:32:19;;;;;;;17.15;5.63;;;;;;;;;;5004071;28;20068;-71
2021/12/12 00:34:49;;;;;;;15.90;5.30;;;;;;;;;;5007460;28;20026;-72
2021/12/12 00:37:16;;;;;;;14.52;6.38;;;;;;;;;;5007309;28;20046;-72
2021/12/12 00:39:47;;;;;;;15.65;5.55;;;;;;;;;;5006684;28;20125;-72
2021/12/12 00:42:17;;;;;;;14.52;4.18;;;;;;;;;;5009420;28;20625;-72
2021/12/12 00:44:46;;;;;;;14.63;4.85;;;;;;;;;;5007325;28;20112;-72
2021/12/12 00:47:12;;;;;;;12.52;4.15;;;;;;;;;;5006582;28;20064;-72
2021/12/12 00:49:41;;;;;;;8.13;3.92;;;;;;;;;;5006575;28;20053;-72
2021/12/12 00:52:10;;;;;;;12.52;4.90;;;;;;;;;;5008101;28;20523;-71
2021/12/12 00:54:36;;;;;;;9.32;3.55;;;;;;;;;;4999733;28;20038;-72
2021/12/12 00:57:06;;;;;;;10.55;3.78;;;;;;;;;;5005441;28;20034;-71
2021/12/12 00:59:32;;;;;;;13.65;4.47;;;;;;;;;;5004948;28;20109;-71
2021/12/12 01:01:58;;;;;;;13.52;4.40;;;;;;;;;;5005683;28;20134;-72
2021/12/12 01:04:30;;;;;;;11.90;3.08;;;;;;;;;;5009618;28;20045;-72
2021/12/12 01:06:58;;;;;;;15.25;4.20;;;;;;;;;;5016123;28;20041;-71
2021/12/12 01:09:31;;;;;;;8.35;3.92;;;;;;;;;;5005920;28;20047;-72
2021/12/12 01:12:00;;;;;;;17.38;4.28;;;;;;;;;;5006417;28;20531;-72
2021/12/12 01:14:33;;;;;;;6.50;3.33;;;;;;;;;;4987944;28;20497;-71
2021/12/12 01:17:04;;;;;;;10.68;4.43;;;;;;;;;;5016222;28;20530;-72
2021/12/12 01:19:50;;;;;;;7.38;3.25;;;;;;;;;;5019638;28;20052;-72
2021/12/12 01:22:23;;;;;;;13.27;4.18;;;;;;;;;;5022255;28;20049;-72
2021/12/12 01:24:52;;;;;;;3.88;2.30;;;;;;;;;;5022965;28;20042;-72
2021/12/12 01:27:18;;;;;;;13.45;4.30;;;;;;;;;;5005141;28;20045;-71
2021/12/12 01:29:44;;;;;;;11.38;4.50;;;;;;;;;;5012534;28;20029;-71
2021/12/12 01:32:20;;;;;;;6.78;2.85;;;;;;;;;;5019198;28;20036;-72
2021/12/12 01:34:50;;;;;;;15.77;4.82;;;;;;;;;;5007466;28;20124;-72
2021/12/12 01:39:53;;;;;;;17.52;5.20;;;;;;;;;;4996246;28;20121;-72
2021/12/12 01:42:27;;;;;;;8.35;4.43;;;;;;;;;;5015893;28;20045;-71
2021/12/12 01:45:16;;;;;;;10.32;2.80;;;;;;;;;;5010629;28;20049;-71
2021/12/12 01:47:50;;;;;;;14.88;4.13;;;;;;;;;;4986660;28;20136;-71
2021/12/12 01:50:26;;;;;;;15.88;4.15;;;;;;;;;;4974196;28;1647224;-71
2021/12/12 01:52:54;;;;;;;10.27;4.25;;;;;;;;;;5029729;28;20693;-71
2021/12/12 01:55:25;;;;;;;16.70;4.88;;;;;;;;;;5017172;28;20030;-71
2021/12/12 01:57:56;;;;;;;11.77;4.07;;;;;;;;;;5029167;28;20037;-71
2021/12/12 02:00:30;;;;;;;13.20;3.80;;;;;;;;;;5026488;28;20038;-72
2021/12/12 02:02:57;;;;;;;13.90;3.55;;;;;;;;;;5012907;28;20037;-72
2021/12/12 02:05:25;;;;;;;13.18;3.88;;;;;;;;;;5029746;28;20084;-71
2021/12/12 02:08:06;;;;;;;12.65;3.78;;;;;;;;;;5030340;28;20629;-72
2021/12/12 02:10:39;;;;;;;11.60;4.30;;;;;;;;;;5012668;28;20425;-72
2021/12/12 02:13:06;;;;;;;10.27;3.97;;;;;;;;;;5030176;28;20061;-72
2021/12/12 02:15:35;;;;;;;15.75;4.72;;;;;;;;;;5029961;28;20037;-71
2021/12/12 02:18:09;;;;;;;12.40;4.30;;;;;;;;;;5028060;28;20030;-71
2021/12/12 02:20:43;;;;;;;14.32;3.83;;;;;;;;;;5025504;28;20040;-72
2021/12/12 02:36:51;;;;;;;15.60;5.22;;;;;;;;;;5021787;28;20048;-71
2021/12/12 02:39:17;;;;;;;15.40;5.85;;;;;;;;;;5045065;28;20030;-71
2021/12/12 02:41:47;;;;;;;15.52;5.43;;;;;;;;;;5032321;28;20053;-72
2021/12/12 02:44:15;;;;;;;11.88;4.15;;;;;;;;;;5031432;28;20088;-72
2021/12/12 02:46:43;;;;;;;13.80;5.28;;;;;;;;;;5012034;28;20475;-72
2021/12/12 02:49:24;;;;;;;14.85;5.30;;;;;;;;;;5028531;28;20054;-72
2021/12/12 02:51:52;;;;;;;9.57;4.53;;;;;;;;;;5029983;28;20044;-72
2021/12/12 02:54:17;;;;;;;12.73;5.43;;;;;;;;;;5030354;28;20104;-72
2021/12/12 02:56:48;;;;;;;10.95;4.90;;;;;;;;;;5027360;28;20873;-72
2021/12/12 02:59:17;;;;;;;19.23;6.13;;;;;;;;;;5029295;28;20111;-71
2021/12/12 03:01:48;;;;;;;16.65;6.35;;;;;;;;;;5024575;28;20049;-72
2021/12/12 03:04:14;;;;;;;15.38;5.55;;;;;;;;;;5030566;28;20115;-72
2021/12/12 03:06:42;;;;;;;17.70;6.45;;;;;;;;;;5029138;28;20042;-71
2021/12/12 03:09:14;;;;;;;17.48;7.32;;;;;;;;;;5030273;28;20394;-72
2021/12/12 03:11:40;;;;;;;16.70;6.82;;;;;;;;;;5030337;28;20541;-72
2021/12/12 03:14:06;;;;;;;9.00;5.03;;;;;;;;;;5030915;28;20028;-72
2021/12/12 03:16:33;;;;;;;7.63;3.63;;;;;;;;;;5007539;28;20037;-72
2021/12/12 03:18:59;;;;;;;9.85;3.53;;;;;;;;;;5027564;28;20462;-72
2021/12/12 03:21:32;;;;;;;14.43;6.25;;;;;;;;;;5029692;28;20044;-72
2021/12/12 03:24:08;;;;;;;;;;;;;;;;;;5028831;28;20029;-72
2021/12/12 03:26:35;;;;;;;12.90;6.03;;;;;;;;;;5029842;28;20417;-71
2021/12/12 03:29:01;;;;;;;13.68;6.20;;;;;;;;;;5032186;28;20036;-72
2021/12/12 03:31:31;;;;;;;17.67;6.82;;;;;;;;;;5009988;28;20064;-72
2021/12/12 03:33:59;;;;;;;13.65;6.15;;;;;;;;;;5028890;28;20080;-71
2021/12/12 03:36:24;;;;;;;14.77;6.32;;;;;;;;;;5018796;28;20052;-71
2021/12/12 03:38:59;;;;;;;15.73;6.78;;;;;;;;;;5030643;28;20033;-71
2021/12/12 03:41:29;;;;;;;16.63;6.63;;;;;;;;;;5027706;28;20021;-71
2021/12/12 03:43:58;;;;;;;9.85;5.82;;;;;;;;;;5029478;28;20064;-72
2021/12/12 03:46:24;;;;;;;12.90;6.35;;;;;;;;;;5029102;28;20040;-72
2021/12/12 03:48:50;;;;;;;15.30;5.80;;;;;;;;;;5011501;28;20049;-71
2021/12/12 03:51:18;;;;;;;15.38;5.57;;;;;;;;;;5029605;28;20042;-71
2021/12/12 03:53:44;;;;;;;9.45;5.60;;;;;;;;;;5011776;28;20037;-71
2021/12/12 03:56:12;;;;;;;9.25;5.70;;;;;;;;;;5027532;28;20025;-71
2021/12/12 03:58:39;;;;;;;11.82;5.47;;;;;;;;;;5028534;28;20120;-71
2021/12/12 04:01:13;;;;;;;13.00;6.32;;;;;;;;;;5027300;28;20049;-72
2021/12/12 04:03:40;;;;;;;9.18;4.97;;;;;;;;;;5029363;28;20053;-72
2021/12/12 04:06:11;;;;;;;15.25;5.70;;;;;;;;;;5029483;28;20037;-71
2021/12/12 04:08:40;;;;;;;11.02;5.10;;;;;;;;;;5027906;28;20039;-71
2021/12/12 04:11:13;;;;;;;12.25;5.25;;;;;;;;;;5019337;28;20058;-72
2021/12/12 04:13:42;;;;;;;8.02;5.00;;;;;;;;;;5028463;28;20045;-71
2021/12/12 04:16:07;;;;;;;8.48;4.97;;;;;;;;;;5026421;28;20045;-72
2021/12/12 04:18:33;;;;;;;8.38;4.55;;;;;;;;;;5029283;28;20042;-72
2021/12/12 04:20:58;;;;;;;8.10;4.63;;;;;;;;;;5029350;28;20182;-71
2021/12/12 04:23:29;;;;;;;8.45;4.15;;;;;;;;;;5010131;28;20499;-72
2021/12/12 04:26:17;;;;;;;9.43;4.90;;;;;;;;;;5029086;28;20554;-71
2021/12/12 04:28:43;;;;;;;7.35;4.50;;;;;;;;;;5031321;28;20498;-71
2021/12/12 04:31:09;;;;;;;6.78;4.10;;;;;;;;;;5029146;28;20037;-72
2021/12/12 04:33:35;;;;;;;9.07;4.43;;;;;;;;;;5028492;28;20087;-72
2021/12/12 04:36:01;;;;;;;6.75;4.53;;;;;;;;;;5029362;28;20033;-72
2021/12/12 04:38:26;;;;;;;7.10;4.63;;;;;;;;;;5020041;28;20024;-71
2021/12/12 04:40:52;;;;;;;8.00;4.82;;;;;;;;;;5033470;28;20064;-72
2021/12/12 04:43:17;;;;;;;8.18;5.25;;;;;;;;;;5028828;28;20514;-72
2021/12/12 04:46:06;;;;;;;6.50;4.47;;;;;;;;;;5026172;28;20530;-71
2021/12/12 04:51:26;;;;;;;8.77;4.53;;;;;;;;;;5026858;28;20044;-71
2021/12/12 04:54:02;;;;;;;13.73;4.50;;;;;;;;;;5025372;28;20029;-72
2021/12/12 04:56:46;;;;;;;5.57;3.83;;;;;;;;;;5026370;28;20510;-71
2021/12/12 04:59:19;;;;;;;5.18;3.40;;;;;;;;;;5016685;28;20032;-72
2021/12/12 05:02:01;;;;;;;9.35;4.75;;;;;;;;;;5010330;28;20085;-71
2021/12/12 05:04:31;;;;;;;8.50;4.22;;;;;;;;;;5009163;28;20034;-71
2021/12/12 05:07:19;;;;;;;8.75;4.88;;;;;;;;;;5028337;28;20029;-72
2021/12/12 05:10:13;;;;;;;9.35;5.00;;;;;;;;;;5006756;28;20034;-71
2021/12/12 05:12:46;;;;;;;;;;;;;;;;;;5013535;28;20045;-71
2021/12/12 05:15:28;;;;;;;7.53;4.68;;;;;;;;;;5022996;28;19917;-72
2021/12/12 05:18:26;;;;;;;7.45;4.28;;;;;;;;;;5028792;28;20033;-72
2021/12/12 05:21:03;;;;;;;9.35;4.95;;;;;;;;;;5013745;28;20151;-72
2021/12/12 05:23:30;;;;;;;7.43;4.28;;;;;;;;;;5010879;28;20108;-71
2021/12/12 05:26:18;;;;;;;8.15;4.75;;;;;;;;;;5026849;28;20028;-72
2021/12/12 05:29:00;;;;;;;7.05;3.65;;;;;;;;;;5028252;28;20111;-71
2021/12/12 05:31:27;;;;;;;9.68;4.90;;;;;;;;;;5031147;28;20084;-72
2021/12/12 05:33:54;;;;;;;8.88;5.00;;;;;;;;;;5026993;28;20060;-72
2021/12/12 05:36:20;;;;;;;10.63;4.82;;;;;;;;;;5026738;28;20064;-71
2021/12/12 05:38:46;;;;;;;9.07;5.22;;;;;;;;;;5010573;28;20521;-72
2021/12/12 05:41:11;;;;;;;8.30;4.75;;;;;;;;;;5030274;28;20029;-72
2021/12/12 05:43:37;;;;;;;9.75;4.57;;;;;;;;;;5028186;28;20052;-72
2021/12/12 05:46:04;;;;;;;8.50;4.63;;;;;;;;;;5010182;28;20053;-72
2021/12/12 05:48:30;;;;;;;9.30;4.18;;;;;;;;;;5028493;28;20037;-71
2021/12/12 05:50:57;;;;;;;9.13;5.30;;;;;;;;;;5009556;28;20442;-71
2021/12/12 05:53:22;;;;;;;8.52;4.50;;;;;;;;;;5025035;28;20056;-71
2021/12/12 05:55:49;;;;;;;7.88;4.47;;;;;;;;;;5011773;28;20052;-72
2021/12/12 05:58:21;;;;;;;10.27;5.07;;;;;;;;;;5024850;28;20091;-72
2021/12/12 06:00:57;;;;;;;8.25;4.43;;;;;;;;;;5025869;28;20044;-71
2021/12/12 06:03:26;;;;;;;8.23;3.67;;;;;;;;;;5021495;28;20037;-72
2021/12/12 06:05:54;;;;;;;11.98;5.55;;;;;;;;;;5024832;28;20076;-72
2021/12/12 06:08:22;;;;;;;12.23;5.53;;;;;;;;;;5008390;28;20033;-71
2021/12/12 06:10:48;;;;;;;9.70;5.55;;;;;;;;;;5027308;28;20407;-71
2021/12/12 06:13:15;;;;;;;13.35;6.20;;;;;;;;;;5026527;28;20541;-72
2021/12/12 06:15:45;;;;;;;12.95;5.57;;;;;;;;;;5005995;28;20041;-72
2021/12/12 06:18:12;;;;;;;13.50;6.85;;;;;;;;;;5019550;28;20053;-71
2021/12/12 06:20:40;;;;;;;13.05;6.32;;;;;;;;;;5009796;28;20182;-71
2021/12/12 06:23:08;;;;;;;14.43;6.15;;;;;;;;;;5028549;28;20030;-72
2021/12/12 06:25:33;;;;;;;16.38;7.15;;;;;;;;;;5029846;28;20053;-72
2021/12/12 06:27:59;;;;;;;15.88;6.68;;;;;;;;;;5031498;28;20033;-72
2021/12/12 06:30:25;;;;;;;13.43;6.82;;;;;;;;;;5030161;28;20038;-72
2021/12/12 06:32:51;;;;;;;18.13;6.95;;;;;;;;;;5021628;28;20034;-71
2021/12/12 06:35:18;;;;;;;14.30;6.20;;;;;;;;;;5020981;28;20034;-71
2021/12/12 06:37:45;;;;;;;13.93;6.40;;;;;;;;;;5031144;28;20029;-72
2021/12/12 06:40:15;;;;;;;14.93;6.28;;;;;;;;;;5029669;28;20037;-72
2021/12/12 06:42:41;;;;;;;16.10;7.55;;;;;;;;;;5029675;28;20044;-72
2021/12/12 06:45:09;;;;;;;17.70;7.70;;;;;;;;;;5028064;28;20038;-72
2021/12/12 06:47:34;;;;;;;16.88;7.45;;;;;;;;;;5029553;28;20399;-72
2021/12/12 06:50:00;;;;;;;17.88;7.20;;;;;;;;;;5031060;28;20098;-71
2021/12/12 06:52:26;;;;;;;19.08;7.70;;;;;;;;;;5029200;28;20038;-72
2021/12/12 06:54:52;;;;;;;18.80;7.63;;;;;;;;;;5026870;28;20034;-72
2021/12/12 06:57:18;;;;;;;21.13;7.70;;;;;;;;;;5025034;28;20045;-72
2021/12/12 06:59:46;;;;;;;18.98;8.30;;;;;;;;;;5026936;28;20037;-71
2021/12/12 07:02:13;;;;;;;20.48;8.13;;;;;;;;;;5022152;28;20716;-72
2021/12/12 07:04:40;;;;;;;20.90;7.50;;;;;;;;;;5013129;28;20092;-72
2021/12/12 07:07:09;;;;;;;18.15;7.95;;;;;;;;;;5026785;28;20113;-72
2021/12/12 07:09:35;;;;;;;18.20;7.82;;;;;;;;;;5029392;28;20457;-72
2021/12/12 07:12:04;;;;;;;16.80;6.65;;;;;;;;;;5028830;28;20095;-72
2021/12/12 07:14:32;;;;;;;17.50;7.07;;;;;;;;;;5028226;28;20067;-71
2021/12/12 07:16:58;;;;;;;20.00;8.25;;;;;;;;;;5025863;28;20029;-72
2021/12/12 07:19:25;;;;;;;82.60;31.08;;;;;;;;;;5026087;28;20084;-72
2021/12/12 07:21:50;;;;;;;20.08;7.88;;;;;;;;;;5028207;28;20049;-72
2021/12/12 07:24:18;;;;;;;20.02;8.45;;;;;;;;;;5020117;28;20045;-73
2021/12/12 07:26:44;;;;;;;21.23;8.30;;;;;;;;;;5028838;28;20037;-73
2021/12/12 07:29:10;;;;;;;20.30;8.85;;;;;;;;;;5024533;28;20599;-72
2021/12/12 07:31:38;;;;;;;23.70;8.52;;;;;;;;;;5010313;28;20072;-72
2021/12/12 07:34:07;;;;;;;23.02;9.60;;;;;;;;;;5026312;28;20037;-72
2021/12/12 07:36:35;;;;;;;20.80;7.80;;;;;;;;;;5027828;28;20060;-72
2021/12/12 07:39:06;;;;;;;14.85;6.95;;;;;;;;;;5028760;28;20118;-72
2021/12/12 07:41:32;;;;;;;23.95;8.60;;;;;;;;;;5028506;28;20022;-72
2021/12/12 07:43:59;;;;;;;21.88;8.75;;;;;;;;;;5030072;28;20021;-73
2021/12/12 07:46:26;;;;;;;18.83;7.13;;;;;;;;;;5025441;28;20046;-72
2021/12/12 07:48:53;;;;;;;12.70;6.85;;;;;;;;;;5027782;28;20046;-73
2021/12/12 07:51:21;;;;;;;22.33;7.32;;;;;;;;;;5023802;28;20045;-73
2021/12/12 07:53:52;;;;;;;14.77;6.70;;;;;;;;;;5024786;28;20148;-72
2021/12/12 07:56:19;;;;;;;20.10;7.70;;;;;;;;;;5027199;28;20554;-72
2021/12/12 07:58:45;;;;;;;17.27;7.15;;;;;;;;;;5029431;28;20445;-73
2021/12/12 08:01:13;;;;;;;22.67;7.55;;;;;;;;;;5020915;28;20069;-73
2021/12/12 08:03:40;;;;;;;17.85;8.25;;;;;;;;;;5021922;28;20047;-73
2021/12/12 08:06:09;;;;;;;21.25;6.97;;;;;;;;;;5024524;28;20033;-73
2021/12/12 08:08:35;;;;;;;15.07;7.10;;;;;;;;;;5021351;28;20037;-73
2021/12/12 08:11:02;;;;;;;16.15;6.82;;;;;;;;;;5032545;28;20032;-73
2021/12/12 08:13:29;;;;;;;14.98;6.78;;;;;;;;;;5025833;28;20136;-73
2021/12/12 08:15:55;;;;;;;17.02;7.38;;;;;;;;;;5029020;28;20047;-73
2021/12/12 08:18:22;;;;;;;18.67;7.50;;;;;;;;;;5030208;28;20041;-73
2021/12/12 08:20:50;;;;;;;16.65;6.45;;;;;;;;;;5017248;28;20100;-73
2021/12/12 08:23:16;;;;;;;23.15;9.98;;;;;;;;;;5022339;28;20116;-73
2021/12/12 08:25:45;;;;;;;31.00;11.05;;;;;;;;;;5022378;28;20029;-73
2021/12/12 08:28:12;;;;;;;24.42;10.77;;;;;;;;;;5027272;28;20049;-73
2021/12/12 08:30:38;;;;;;;25.30;11.75;;;;;;;;;;5025416;28;20067;-73
2021/12/12 08:33:06;;;;;;;38.97;14.02;;;;;;;;;;5026400;28;20189;-74
2021/12/12 08:35:33;;;;;;;37.88;15.52;;;;;;;;;;5025808;28;24075;-73
2021/12/12 08:38:01;;;;;;;32.78;15.75;;;;;;;;;;5029481;28;20083;-72
2021/12/12 08:40:30;;;;;;;35.03;16.63;;;;;;;;;;5021902;28;20523;-73
2021/12/12 08:42:56;;;;;;;39.60;17.58;;;;;;;;;;5024345;28;20119;-73
2021/12/12 08:45:29;;;;;;;42.80;16.05;;;;;;;;;;5026544;28;20068;-73
2021/12/12 08:47:55;;;;;;;31.77;14.13;;;;;;;;;;5015395;28;20045;-73
2021/12/12 08:50:26;;;;;;;28.50;11.63;;;;;;;;;;5026676;28;20041;-72
2021/12/12 08:52:53;;;;;;;31.30;12.80;;;;;;;;;;5023319;28;20402;-73
2021/12/12 08:55:33;;;;;;;25.15;10.18;;;;;;;;;;5025317;28;20025;-73
2021/12/12 08:58:14;;;;;;;18.00;8.45;;;;;;;;;;5024603;28;20498;-73
2021/12/12 09:00:45;;;;;;;28.42;10.10;;;;;;;;;;5021497;28;20045;-73
2021/12/12 09:03:14;;;;;;;20.23;8.35;;;;;;;;;;5026663;28;20038;-73
2021/12/12 09:05:42;;;;;;;26.63;10.82;;;;;;;;;;5025165;28;20411;-73
2021/12/12 09:08:11;;;;;;;22.70;10.38;;;;;;;;;;5025441;28;20104;-73
2021/12/12 09:10:45;;;;;;;45.08;14.43;;;;;;;;;;5022460;28;20038;-72
2021/12/12 09:13:19;;;;;;;37.97;15.60;;;;;;;;;;5018976;28;20034;-72
2021/12/12 09:16:03;;;;;;;27.60;11.13;;;;;;;;;;5007793;28;20030;-72
2021/12/12 09:18:38;;;;;;;;;;;;;;;;;;5023095;28;20033;-73
2021/12/12 09:21:22;;;;;;;27.80;11.27;;;;;;;;;;5024394;28;20322;-72
2021/12/12 09:24:05;;;;;;;28.52;10.80;;;;;;;;;;5023671;28;20056;-72
2021/12/12 09:26:34;;;;;;;19.05;7.97;;;;;;;;;;5018830;28;20026;-73
2021/12/12 09:29:21;;;;;;;28.88;10.80;;;;;;;;;;5022971;28;20036;-72
2021/12/12 09:32:08;;;;;;;25.95;10.15;;;;;;;;;;5022787;28;20049;-73
2021/12/12 09:34:40;;;;;;;29.30;10.10;;;;;;;;;;5014207;28;20025;-72
2021/12/12 09:37:35;;;;;;;22.10;9.88;;;;;;;;;;5022448;28;20041;-73
2021/12/12 09:40:27;;;;;;;25.38;9.35;;;;;;;;;;5019677;28;20037;-73
2021/12/12 09:43:17;;;;;;;24.52;8.35;;;;;;;;;;5018684;28;20049;-73
2021/12/12 09:46:01;;;;;;;27.08;9.57;;;;;;;;;;5024728;28;20045;-73
2021/12/12 09:51:46;;;;;;;24.15;8.82;;;;;;;;;;5020978;28;20049;-72
2021/12/12 09:54:34;;;;;;;18.92;8.25;;;;;;;;;;5025194;28;20045;-72
2021/12/12 09:57:12;;;;;;;20.33;8.68;;;;;;;;;;5006399;28;20029;-73
2021/12/12 10:00:00;;;;;;;18.95;8.80;;;;;;;;;;5024043;28;20037;-72
2021/12/12 10:03:08;;;;;;;23.95;8.65;;;;;;;;;;5011195;28;20083;-73
2021/12/12 10:05:43;;;;;;;23.08;8.43;;;;;;;;;;5007527;28;20062;-73
2021/12/12 10:08:24;;;;;;;21.75;8.10;;;;;;;;;;5025379;28;20021;-73
2021/12/12 10:11:09;;;;;;;21.38;8.18;;;;;;;;;;5025115;28;20046;-72
2021/12/12 10:13:48;;;;;;;17.38;8.07;;;;;;;;;;5018992;28;20141;-73
2021/12/12 10:16:16;;;;;;;20.85;7.80;;;;;;;;;;5025717;28;20037;-72
2021/12/12 10:18:44;;;;;;;23.98;8.60;;;;;;;;;;5025259;28;20037;-72
2021/12/12 10:21:13;;;;;;;19.67;8.45;;;;;;;;;;5027854;28;20045;-73
2021/12/12 10:24:02;;;;;;;20.38;8.23;;;;;;;;;;5025591;28;20049;-73
2021/12/12 10:26:44;;;;;;;19.00;8.45;;;;;;;;;;5022982;28;20482;-72
2021/12/12 10:29:20;;;;;;;19.23;7.72;;;;;;;;;;5026335;28;20510;-73
2021/12/12 10:32:00;;;;;;;17.00;7.90;;;;;;;;;;5023848;28;20037;-73
2021/12/12 10:34:32;;;;;;;18.55;8.25;;;;;;;;;;5027212;28;20108;-73
2021/12/12 10:37:30;;;;;;;18.88;7.93;;;;;;;;;;5027723;28;20038;-73
2021/12/12 10:40:05;;;;;;;16.83;7.78;;;;;;;;;;5005761;28;20056;-73
2021/12/12 10:42:34;;;;;;;16.33;7.53;;;;;;;;;;5028120;28;20112;-73
2021/12/12 10:45:03;;;;;;;16.10;7.75;;;;;;;;;;5026935;28;20045;-73
2021/12/12 10:47:47;;;;;;;15.65;7.63;;;;;;;;;;5009009;28;20029;-74
2021/12/12 10:50:23;;;;;;;;;;;;;;;;;;5029058;28;20088;-73
2021/12/12 10:53:08;;;;;;;13.60;7.20;;;;;;;;;;5025901;28;19921;-74
2021/12/12 10:55:57;;;;;;;15.82;7.22;;;;;;;;;;5022999;28;20505;-74
2021/12/12 10:58:32;;;;;;;17.33;7.55;;;;;;;;;;4969603;28;20041;-74
2021/12/12 11:01:22;;;;;;;19.60;7.88;;;;;;;;;;5021030;28;20522;-74
2021/12/12 11:04:18;;;;;;;17.98;7.82;;;;;;;;;;5026307;28;20065;-74
2021/12/12 11:06:52;;;;;;;18.80;8.35;;;;;;;;;;5018961;28;20514;-74
2021/12/12 11:09:27;;;;;;;18.60;8.13;;;;;;;;;;5022529;28;20592;-74
2021/12/12 11:12:06;;;;;;;15.73;7.40;;;;;;;;;;5020438;28;20068;-75
2021/12/12 11:14:38;;;;;;;19.98;9.13;;;;;;;;;;5022478;28;20047;-74
2021/12/12 11:17:24;;;;;;;15.93;7.55;;;;;;;;;;5027921;28;20671;-73
2021/12/12 11:19:55;;;;;;;17.33;7.75;;;;;;;;;;5021728;28;20065;-74
2021/12/12 11:22:47;;;;;;;18.15;8.73;;;;;;;;;;5020419;28;20033;-74
2021/12/12 11:25:25;;;;;;;18.35;7.93;;;;;;;;;;4992874;28;20679;-74
2021/12/12 11:27:55;;;;;;;20.60;8.00;;;;;;;;;;5021116;28;20038;-74
2021/12/12 11:30:30;;;;;;;22.38;8.65;;;;;;;;;;5021736;28;20033;-74
2021/12/12 11:32:59;;;;;;;17.77;7.75;;;;;;;;;;5012327;28;20537;-74
2021/12/12 11:35:26;;;;;;;20.73;8.73;;;;;;;;;;5024433;28;20034;-74
2021/12/12 11:38:16;;;;;;;16.67;7.63;;;;;;;;;;5006105;28;20084;-73
2021/12/12 11:40:47;;;;;;;21.92;10.02;;;;;;;;;;5023609;28;20125;-74
2021/12/12 11:43:43;;;;;;;16.15;7.95;;;;;;;;;;5022618;28;20124;-74
2021/12/12 11:46:14;;;;;;;16.63;7.60;;;;;;;;;;5017243;28;20535;-74
2021/12/12 11:49:05;;;;;;;18.77;7.75;;;;;;;;;;5027313;28;20047;-74
2021/12/12 11:51:36;;;;;;;21.42;8.90;;;;;;;;;;5001701;28;20042;-74
2021/12/12 11:54:41;;;;;;;20.58;8.57;;;;;;;;;;5006046;28;20125;-74
2021/12/12 11:57:12;;;;;;;20.65;8.23;;;;;;;;;;5006472;28;20050;-73
2021/12/12 12:00:06;;;;;;;19.30;8.30;;;;;;;;;;4991111;28;20531;-74
2021/12/12 12:02:34;;;;;;;20.73;8.30;;;;;;;;;;5005173;28;20053;-74
2021/12/12 12:05:25;;;;;;;23.85;7.90;;;;;;;;;;5015083;28;20442;-74
2021/12/12 12:08:09;;;;;;;20.98;8.20;;;;;;;;;;5008978;28;20060;-74
2021/12/12 12:10:37;;;;;;;20.02;9.00;;;;;;;;;;5009094;28;20096;-74
2021/12/12 12:13:40;;;;;;;19.42;9.45;;;;;;;;;;5006239;28;20037;-74
2021/12/12 12:16:25;;;;;;;19.92;8.25;;;;;;;;;;5006042;28;20124;-75
2021/12/12 12:18:57;;;;;;;21.77;8.77;;;;;;;;;;5005103;28;20415;-73
2021/12/12 12:21:33;;;;;;;17.75;8.45;;;;;;;;;;4988760;28;20130;-73
2021/12/12 12:24:37;;;;;;;17.30;8.02;;;;;;;;;;5009630;28;20046;-73
2021/12/12 12:27:28;;;;;;;20.90;8.90;;;;;;;;;;4996330;28;20120;-73
2021/12/12 12:30:12;;;;;;;19.10;8.48;;;;;;;;;;4998453;28;20041;-73
2021/12/12 12:32:53;;;;;;;19.63;9.02;;;;;;;;;;5003813;28;20048;-73
2021/12/12 12:36:12;;;;;;;21.15;9.90;;;;;;;;;;5004836;28;20030;-73
2021/12/12 12:39:24;;;;;;;19.25;9.25;;;;;;;;;;4997749;28;20077;-73
2021/12/12 12:42:21;;;;;;;21.88;8.60;;;;;;;;;;5007706;28;20538;-74
2021/12/12 12:45:24;;;;;;;24.95;10.02;;;;;;;;;;5007609;28;20072;-73
2021/12/12 12:48:27;;;;;;;22.73;9.27;;;;;;;;;;5007999;28;20045;-73
2021/12/12 12:51:23;;;;;;;20.10;9.48;;;;;;;;;;5017824;28;20151;-73
2021/12/12 12:54:39;;;;;;;21.13;9.82;;;;;;;;;;5022447;28;20037;-73
2021/12/12 12:57:17;;;;;;;24.98;10.98;;;;;;;;;;4976915;28;20064;-73
2021/12/12 13:00:14;;;;;;;22.15;9.77;;;;;;;;;;5021677;28;20048;-73
2021/12/12 13:02:57;;;;;;;20.95;9.30;;;;;;;;;;5015744;28;20045;-73
2021/12/12 13:05:53;;;;;;;21.30;9.48;;;;;;;;;;5017892;28;20048;-73
2021/12/12 13:08:50;;;;;;;26.83;11.77;;;;;;;;;;5023862;28;20037;-73
2021/12/12 13:11:16;;;;;;;22.88;9.82;;;;;;;;;;5017510;28;20079;-73
2021/12/12 13:13:50;;;;;;;22.83;10.05;;;;;;;;;;5024777;28;20164;-73
2021/12/12 13:16:26;;;;;;;26.83;11.18;;;;;;;;;;5023139;28;20045;-73
2021/12/12 13:19:13;;;;;;;25.80;11.15;;;;;;;;;;5022622;28;20870;-74
2021/12/12 13:21:38;;;;;;;26.08;11.52;;;;;;;;;;5024260;28;20052;-73
2021/12/12 13:24:24;;;;;;;22.83;10.90;;;;;;;;;;5020794;28;20037;-73
2021/12/12 13:27:11;;;;;;;26.15;11.30;;;;;;;;;;5022848;28;20048;-73
2021/12/12 13:30:07;;;;;;;31.73;12.07;;;;;;;;;;5018530;28;20043;-73
2021/12/12 13:32:38;;;;;;;23.65;11.18;;;;;;;;;;5018172;28;20018;-72
2021/12/12 13:35:25;;;;;;;27.00;11.38;;;;;;;;;;5009384;28;20105;-72
2021/12/12 13:38:01;;;;;;;29.88;11.75;;;;;;;;;;5015189;28;20111;-72
2021/12/12 13:40:39;;;;;;;26.33;11.68;;;;;;;;;;5021840;28;20530;-73
2021/12/12 13:43:19;;;;;;;31.15;12.82;;;;;;;;;;5016899;28;20063;-72
2021/12/12 13:46:06;;;;;;;32.88;13.00;;;;;;;;;;5023775;28;20518;-73
2021/12/12 13:48:50;;;;;;;31.70;13.10;;;;;;;;;;5019134;28;20418;-72
2021/12/12 13:51:39;;;;;;;30.17;12.63;;;;;;;;;;5007825;28;20801;-72
2021/12/12 13:54:33;;;;;;;30.52;12.30;;;;;;;;;;4977571;28;20038;-72
2021/12/12 13:57:29;;;;;;;33.85;13.45;;;;;;;;;;4990314;28;20917;-72
2021/12/12 14:00:19;;;;;;;28.50;12.95;;;;;;;;;;4998184;28;20045;-72
2021/12/12 14:02:49;;;;;;;32.63;13.35;;;;;;;;;;5002631;28;20065;-72
2021/12/12 14:05:26;;;;;;;31.08;13.32;;;;;;;;;;5002695;28;20041;-72
2021/12/12 14:08:12;;;;;;;28.27;12.52;;;;;;;;;;4996969;28;20038;-72
2021/12/12 14:10:43;;;;;;;33.00;14.05;;;;;;;;;;5000313;28;20120;-72
2021/12/12 14:13:14;;;;;;;26.27;12.32;;;;;;;;;;4996778;28;20103;-73
2021/12/12 14:16:09;;;;;;;34.38;13.07;;;;;;;;;;5000166;28;20145;-72
2021/12/12 14:18:41;;;;;;;33.72;12.32;;;;;;;;;;4997399;28;20882;-73
2021/12/12 14:21:07;;;;;;;29.20;12.60;;;;;;;;;;5002846;28;20038;-73
2021/12/12 14:23:35;;;;;;;30.13;12.82;;;;;;;;;;5002064;28;20869;-73
2021/12/12 14:26:06;;;;;;;27.33;12.27;;;;;;;;;;4997452;28;20022;-73
2021/12/12 14:28:37;;;;;;;28.77;12.65;;;;;;;;;;4998641;28;20044;-72
2021/12/12 14:31:06;;;;;;;25.60;12.13;;;;;;;;;;5001749;28;20124;-73
2021/12/12 14:33:39;;;;;;;27.48;12.93;;;;;;;;;;5004022;28;20038;-73
2021/12/12 14:36:10;;;;;;;27.88;12.52;;;;;;;;;;4984097;28;20041;-72
2021/12/12 14:38:35;;;;;;;28.83;12.75;;;;;;;;;;5005503;28;20034;-73
2021/12/12 14:41:03;;;;;;;28.90;12.77;;;;;;;;;;5004853;28;20087;-72
2021/12/12 14:43:33;;;;;;;26.30;12.35;;;;;;;;;;5003189;28;20037;-72
2021/12/12 14:46:20;;;;;;;28.13;11.98;;;;;;;;;;5000365;28;20411;-73
2021/12/12 14:48:53;;;;;;;28.83;11.80;;;;;;;;;;5007496;28;20136;-72
2021/12/12 14:51:32;;;;;;;25.60;11.93;;;;;;;;;;5021768;28;20045;-72
2021/12/12 14:54:09;;;;;;;24.23;11.38;;;;;;;;;;5010775;28;20033;-72
2021/12/12 14:56:38;;;;;;;28.67;11.85;;;;;;;;;;5025696;28;20124;-73
2021/12/12 14:59:09;;;;;;;27.52;11.60;;;;;;;;;;5026951;28;20521;-72
2021/12/12 15:01:40;;;;;;;27.13;11.90;;;;;;;;;;5008166;28;20042;-73
2021/12/12 15:04:22;;;;;;;26.00;12.15;;;;;;;;;;5008806;28;20115;-73
2021/12/12 15:06:54;;;;;;;25.67;11.90;;;;;;;;;;5010337;28;20136;-73
2021/12/12 15:09:24;;;;;;;27.10;13.52;;;;;;;;;;5026745;28;20037;-72
2021/12/12 15:11:57;;;;;;;44.53;22.27;;;;;;;;;;5022997;28;20041;-72
2021/12/12 15:14:26;;;;;;;30.90;11.82;;;;;;;;;;5030738;28;20030;-72
2021/12/12 15:16:53;;;;;;;30.02;14.13;;;;;;;;;;5009767;28;20660;-72
2021/12/12 15:19:30;;;;;;;28.75;12.15;;;;;;;;;;5016979;28;20045;-72
2021/12/12 15:22:09;;;;;;;32.92;15.25;;;;;;;;;;5027093;28;20041;-72
2021/12/12 15:24:42;;;;;;;39.65;15.45;;;;;;;;;;5010539;28;20052;-73
2021/12/12 15:27:13;;;;;;;38.30;18.75;;;;;;;;;;5029015;28;20060;-73
2021/12/12 15:29:40;;;;;;;31.70;15.05;;;;;;;;;;5024679;28;21422;-72
2021/12/12 15:32:12;;;;;;;31.40;13.98;;;;;;;;;;5025694;28;20029;-72
2021/12/12 15:34:43;;;;;;;27.25;12.40;;;;;;;;;;5027519;28;20041;-73